Terminal Aerodrome Forecast
Issued by NWS

Current Version | Previous Version | Text Only | Print | Product List | Glossary On
Versions: 1 2 3 4 5 6 7 8 9 10 11 12 13 14 15 16 17
000
FTUS46 KLOX 051100
TAFVNY
TAF
KVNY 051121Z 0512/0612 VRB03KT P6SM SKC
     FM051500 01008KT P6SM SKC
     FM051900 36012G22KT P6SM SKC
     FM052300 01008KT P6SM SKC
     FM060600 VRB03KT P6SM SKC=

USA.gov is the U.S. government's official web portal to all federal, state and local government web resources and services.